sensor_id;sensor_type;location;lat;lon;timestamp;P1;durP1;ratioP1;P2;durP2;ratioP2
22015;SDS011;11172;51.698;-0.292;2022-09-12T00:01:37;6.60;;;5.75;;
22015;SDS011;11172;51.698;-0.292;2022-09-12T00:04:03;9.23;;;6.55;;
22015;SDS011;11172;51.698;-0.292;2022-09-12T00:06:30;10.80;;;6.47;;
22015;SDS011;11172;51.698;-0.292;2022-09-12T00:08:57;8.20;;;6.22;;
22015;SDS011;11172;51.698;-0.292;2022-09-12T00:11:24;13.13;;;6.97;;
22015;SDS011;11172;51.698;-0.292;2022-09-12T00:13:50;10.05;;;6.03;;
22015;SDS011;11172;51.698;-0.292;2022-09-12T00:16:18;12.27;;;6.40;;
22015;SDS011;11172;51.698;-0.292;2022-09-12T00:18:44;10.93;;;5.68;;
22015;SDS011;11172;51.698;-0.292;2022-09-12T00:21:11;8.75;;;5.47;;
22015;SDS011;11172;51.698;-0.292;2022-09-12T00:23:37;10.02;;;5.32;;
22015;SDS011;11172;51.698;-0.292;2022-09-12T00:26:04;10.15;;;6.97;;
22015;SDS011;11172;51.698;-0.292;2022-09-12T00:28:31;12.50;;;7.75;;
22015;SDS011;11172;51.698;-0.292;2022-09-12T00:30:58;12.35;;;6.90;;
22015;SDS011;11172;51.698;-0.292;2022-09-12T00:33:24;9.43;;;7.18;;
22015;SDS011;11172;51.698;-0.292;2022-09-12T00:35:50;9.68;;;7.20;;
22015;SDS011;11172;51.698;-0.292;2022-09-12T00:38:17;15.98;;;6.65;;
22015;SDS011;11172;51.698;-0.292;2022-09-12T00:40:43;12.88;;;7.75;;
22015;SDS011;11172;51.698;-0.292;2022-09-12T00:43:53;10.77;;;8.23;;
22015;SDS011;11172;51.698;-0.292;2022-09-12T00:46:23;14.07;;;8.38;;
22015;SDS011;11172;51.698;-0.292;2022-09-12T00:48:46;11.77;;;8.50;;
22015;SDS011;11172;51.698;-0.292;2022-09-12T00:51:15;11.73;;;7.13;;
22015;SDS011;11172;51.698;-0.292;2022-09-12T00:53:42;10.45;;;7.53;;
22015;SDS011;11172;51.698;-0.292;2022-09-12T00:56:09;19.55;;;9.55;;
22015;SDS011;11172;51.698;-0.292;2022-09-12T00:58:39;9.65;;;7.15;;
22015;SDS011;11172;51.698;-0.292;2022-09-12T01:01:06;10.25;;;7.80;;
22015;SDS011;11172;51.698;-0.292;2022-09-12T01:03:32;14.25;;;7.80;;
22015;SDS011;11172;51.698;-0.292;2022-09-12T01:06:44;11.18;;;7.38;;
22015;SDS011;11172;51.698;-0.292;2022-09-12T01:08:45;9.93;;;7.05;;
22015;SDS011;11172;51.698;-0.292;2022-09-12T01:11:12;11.70;;;8.25;;
22015;SDS011;11172;51.698;-0.292;2022-09-12T01:13:38;16.35;;;8.45;;
22015;SDS011;11172;51.698;-0.292;2022-09-12T01:16:05;11.40;;;7.82;;
22015;SDS011;11172;51.698;-0.292;2022-09-12T01:29:02;11.88;;;8.27;;
22015;SDS011;11172;51.698;-0.292;2022-09-12T01:34:38;13.27;;;8.95;;
22015;SDS011;11172;51.698;-0.292;2022-09-12T01:39:54;14.57;;;10.13;;
22015;SDS011;11172;51.698;-0.292;2022-09-12T01:42:32;11.48;;;8.48;;
22015;SDS011;11172;51.698;-0.292;2022-09-12T01:45:15;12.82;;;8.90;;
22015;SDS011;11172;51.698;-0.292;2022-09-12T01:47:45;14.02;;;9.30;;
22015;SDS011;11172;51.698;-0.292;2022-09-12T01:50:17;15.18;;;8.13;;
22015;SDS011;11172;51.698;-0.292;2022-09-12T01:53:05;15.95;;;9.32;;
22015;SDS011;11172;51.698;-0.292;2022-09-12T01:55:44;18.77;;;9.43;;
22015;SDS011;11172;51.698;-0.292;2022-09-12T01:58:11;25.33;;;10.23;;
22015;SDS011;11172;51.698;-0.292;2022-09-12T02:00:42;13.52;;;8.98;;
22015;SDS011;11172;51.698;-0.292;2022-09-12T02:03:11;15.88;;;9.38;;
22015;SDS011;11172;51.698;-0.292;2022-09-12T02:05:47;15.25;;;9.20;;
22015;SDS011;11172;51.698;-0.292;2022-09-12T02:08:19;12.48;;;9.65;;
22015;SDS011;11172;51.698;-0.292;2022-09-12T02:10:55;13.45;;;9.68;;
22015;SDS011;11172;51.698;-0.292;2022-09-12T02:13:24;15.93;;;9.90;;
22015;SDS011;11172;51.698;-0.292;2022-09-12T02:15:53;20.58;;;10.27;;
22015;SDS011;11172;51.698;-0.292;2022-09-12T02:18:20;17.33;;;10.27;;
22015;SDS011;11172;51.698;-0.292;2022-09-12T02:20:47;17.92;;;8.88;;
22015;SDS011;11172;51.698;-0.292;2022-09-12T02:23:19;17.25;;;10.18;;
22015;SDS011;11172;51.698;-0.292;2022-09-12T02:25:47;22.50;;;9.10;;
22015;SDS011;11172;51.698;-0.292;2022-09-12T02:28:33;14.30;;;10.73;;
22015;SDS011;11172;51.698;-0.292;2022-09-12T02:31:06;18.67;;;11.15;;
22015;SDS011;11172;51.698;-0.292;2022-09-12T02:36:54;18.08;;;11.98;;
22015;SDS011;11172;51.698;-0.292;2022-09-12T02:38:52;16.75;;;11.43;;
22015;SDS011;11172;51.698;-0.292;2022-09-12T02:41:18;17.95;;;10.65;;
22015;SDS011;11172;51.698;-0.292;2022-09-12T02:43:45;20.65;;;12.85;;
22015;SDS011;11172;51.698;-0.292;2022-09-12T02:46:16;18.42;;;11.73;;
22015;SDS011;11172;51.698;-0.292;2022-09-12T02:48:43;17.73;;;11.18;;
22015;SDS011;11172;51.698;-0.292;2022-09-12T02:51:09;16.40;;;11.20;;
22015;SDS011;11172;51.698;-0.292;2022-09-12T02:53:35;15.98;;;11.05;;
22015;SDS011;11172;51.698;-0.292;2022-09-12T02:56:03;16.75;;;11.02;;
22015;SDS011;11172;51.698;-0.292;2022-09-12T02:58:30;16.02;;;10.27;;
22015;SDS011;11172;51.698;-0.292;2022-09-12T03:06:17;20.13;;;10.30;;
22015;SDS011;11172;51.698;-0.292;2022-09-12T03:24:29;16.52;;;10.68;;
22015;SDS011;11172;51.698;-0.292;2022-09-12T03:26:59;15.90;;;11.13;;
22015;SDS011;11172;51.698;-0.292;2022-09-12T03:29:29;19.00;;;11.18;;
22015;SDS011;11172;51.698;-0.292;2022-09-12T03:31:56;14.63;;;10.13;;
22015;SDS011;11172;51.698;-0.292;2022-09-12T03:34:24;17.73;;;10.43;;
22015;SDS011;11172;51.698;-0.292;2022-09-12T03:36:50;17.50;;;10.10;;
22015;SDS011;11172;51.698;-0.292;2022-09-12T03:39:17;19.55;;;10.52;;
22015;SDS011;11172;51.698;-0.292;2022-09-12T03:41:44;18.05;;;9.70;;
22015;SDS011;11172;51.698;-0.292;2022-09-12T03:44:10;13.27;;;9.95;;
22015;SDS011;11172;51.698;-0.292;2022-09-12T03:46:36;12.80;;;9.32;;
22015;SDS011;11172;51.698;-0.292;2022-09-12T03:49:02;12.57;;;9.40;;
22015;SDS011;11172;51.698;-0.292;2022-09-12T03:51:28;15.07;;;9.60;;
22015;SDS011;11172;51.698;-0.292;2022-09-12T03:53:55;12.23;;;9.25;;
22015;SDS011;11172;51.698;-0.292;2022-09-12T03:56:20;16.05;;;9.75;;
22015;SDS011;11172;51.698;-0.292;2022-09-12T03:58:46;24.25;;;9.60;;
22015;SDS011;11172;51.698;-0.292;2022-09-12T04:01:14;17.80;;;9.52;;
22015;SDS011;11172;51.698;-0.292;2022-09-12T04:03:41;23.77;;;10.65;;
22015;SDS011;11172;51.698;-0.292;2022-09-12T04:06:08;11.45;;;8.40;;
22015;SDS011;11172;51.698;-0.292;2022-09-12T04:08:35;21.42;;;9.85;;
22015;SDS011;11172;51.698;-0.292;2022-09-12T04:11:02;15.38;;;9.18;;
22015;SDS011;11172;51.698;-0.292;2022-09-12T04:13:28;11.15;;;8.15;;
22015;SDS011;11172;51.698;-0.292;2022-09-12T04:15:58;17.02;;;9.73;;
22015;SDS011;11172;51.698;-0.292;2022-09-12T04:18:24;15.40;;;9.68;;
22015;SDS011;11172;51.698;-0.292;2022-09-12T04:20:50;17.30;;;10.13;;
22015;SDS011;11172;51.698;-0.292;2022-09-12T04:23:16;13.82;;;9.45;;
22015;SDS011;11172;51.698;-0.292;2022-09-12T04:25:42;16.05;;;10.57;;
22015;SDS011;11172;51.698;-0.292;2022-09-12T04:28:08;15.18;;;10.73;;
22015;SDS011;11172;51.698;-0.292;2022-09-12T04:30:34;17.02;;;10.15;;
22015;SDS011;11172;51.698;-0.292;2022-09-12T04:33:00;15.82;;;9.02;;
22015;SDS011;11172;51.698;-0.292;2022-09-12T04:35:26;13.75;;;9.90;;
22015;SDS011;11172;51.698;-0.292;2022-09-12T04:37:52;12.60;;;8.40;;
22015;SDS011;11172;51.698;-0.292;2022-09-12T04:40:18;14.23;;;9.18;;
22015;SDS011;11172;51.698;-0.292;2022-09-12T04:42:44;17.33;;;9.90;;
22015;SDS011;11172;51.698;-0.292;2022-09-12T04:45:10;15.30;;;9.55;;
22015;SDS011;11172;51.698;-0.292;2022-09-12T04:47:37;18.45;;;10.52;;
22015;SDS011;11172;51.698;-0.292;2022-09-12T04:50:03;18.98;;;10.73;;
22015;SDS011;11172;51.698;-0.292;2022-09-12T04:52:29;16.45;;;10.27;;
22015;SDS011;11172;51.698;-0.292;2022-09-12T04:54:55;13.63;;;10.38;;
22015;SDS011;11172;51.698;-0.292;2022-09-12T04:57:21;17.67;;;9.18;;
22015;SDS011;11172;51.698;-0.292;2022-09-12T04:59:47;15.57;;;10.35;;
22015;SDS011;11172;51.698;-0.292;2022-09-12T05:02:13;18.08;;;10.63;;
22015;SDS011;11172;51.698;-0.292;2022-09-12T05:04:40;16.10;;;10.13;;
22015;SDS011;11172;51.698;-0.292;2022-09-12T05:07:06;15.57;;;10.75;;
22015;SDS011;11172;51.698;-0.292;2022-09-12T05:09:32;19.80;;;10.52;;
22015;SDS011;11172;51.698;-0.292;2022-09-12T05:11:58;22.75;;;10.63;;
22015;SDS011;11172;51.698;-0.292;2022-09-12T05:14:24;16.92;;;9.18;;
22015;SDS011;11172;51.698;-0.292;2022-09-12T05:16:50;15.13;;;9.48;;
22015;SDS011;11172;51.698;-0.292;2022-09-12T05:19:16;14.30;;;9.70;;
22015;SDS011;11172;51.698;-0.292;2022-09-12T05:21:42;15.35;;;9.88;;
22015;SDS011;11172;51.698;-0.292;2022-09-12T05:24:08;19.02;;;10.60;;
22015;SDS011;11172;51.698;-0.292;2022-09-12T05:26:35;16.13;;;9.93;;
22015;SDS011;11172;51.698;-0.292;2022-09-12T05:29:02;14.10;;;9.50;;
22015;SDS011;11172;51.698;-0.292;2022-09-12T05:31:30;19.08;;;8.80;;
22015;SDS011;11172;51.698;-0.292;2022-09-12T05:33:56;10.93;;;8.00;;
22015;SDS011;11172;51.698;-0.292;2022-09-12T05:36:26;11.57;;;7.50;;
22015;SDS011;11172;51.698;-0.292;2022-09-12T05:38:53;12.55;;;7.60;;
22015;SDS011;11172;51.698;-0.292;2022-09-12T05:41:24;12.30;;;7.55;;
22015;SDS011;11172;51.698;-0.292;2022-09-12T05:43:57;14.73;;;7.80;;
22015;SDS011;11172;51.698;-0.292;2022-09-12T05:46:24;12.27;;;7.57;;
22015;SDS011;11172;51.698;-0.292;2022-09-12T05:48:51;14.98;;;8.63;;
22015;SDS011;11172;51.698;-0.292;2022-09-12T05:51:20;15.52;;;7.53;;
22015;SDS011;11172;51.698;-0.292;2022-09-12T05:53:48;10.13;;;7.47;;
22015;SDS011;11172;51.698;-0.292;2022-09-12T05:56:15;19.55;;;9.45;;
22015;SDS011;11172;51.698;-0.292;2022-09-12T05:58:43;14.20;;;9.25;;
22015;SDS011;11172;51.698;-0.292;2022-09-12T06:01:10;17.00;;;10.25;;
22015;SDS011;11172;51.698;-0.292;2022-09-12T06:03:41;15.18;;;9.45;;
22015;SDS011;11172;51.698;-0.292;2022-09-12T06:06:07;11.77;;;9.32;;
22015;SDS011;11172;51.698;-0.292;2022-09-12T06:08:37;14.60;;;9.52;;
22015;SDS011;11172;51.698;-0.292;2022-09-12T06:11:04;17.05;;;8.98;;
22015;SDS011;11172;51.698;-0.292;2022-09-12T06:13:31;14.85;;;9.70;;
22015;SDS011;11172;51.698;-0.292;2022-09-12T06:16:04;12.30;;;8.77;;
22015;SDS011;11172;51.698;-0.292;2022-09-12T06:18:31;11.68;;;8.90;;
22015;SDS011;11172;51.698;-0.292;2022-09-12T06:21:00;13.23;;;7.72;;
22015;SDS011;11172;51.698;-0.292;2022-09-12T06:23:26;19.00;;;8.55;;
22015;SDS011;11172;51.698;-0.292;2022-09-12T06:25:52;21.80;;;8.10;;
22015;SDS011;11172;51.698;-0.292;2022-09-12T06:28:19;12.23;;;8.02;;
22015;SDS011;11172;51.698;-0.292;2022-09-12T06:30:45;9.68;;;6.15;;
22015;SDS011;11172;51.698;-0.292;2022-09-12T06:33:11;8.82;;;5.53;;
22015;SDS011;11172;51.698;-0.292;2022-09-12T06:35:37;10.23;;;7.10;;
22015;SDS011;11172;51.698;-0.292;2022-09-12T06:38:03;10.00;;;6.88;;
22015;SDS011;11172;51.698;-0.292;2022-09-12T06:40:30;7.45;;;5.75;;
22015;SDS011;11172;51.698;-0.292;2022-09-12T06:42:56;15.93;;;6.88;;
22015;SDS011;11172;51.698;-0.292;2022-09-12T06:45:22;13.38;;;6.43;;
22015;SDS011;11172;51.698;-0.292;2022-09-12T06:47:50;13.55;;;6.15;;
22015;SDS011;11172;51.698;-0.292;2022-09-12T06:50:16;11.07;;;5.40;;
22015;SDS011;11172;51.698;-0.292;2022-09-12T06:52:42;7.75;;;5.72;;
22015;SDS011;11172;51.698;-0.292;2022-09-12T06:55:08;10.07;;;5.30;;
22015;SDS011;11172;51.698;-0.292;2022-09-12T06:57:34;9.95;;;5.38;;
22015;SDS011;11172;51.698;-0.292;2022-09-12T07:00:06;8.07;;;5.15;;
22015;SDS011;11172;51.698;-0.292;2022-09-12T07:02:32;9.75;;;5.38;;
22015;SDS011;11172;51.698;-0.292;2022-09-12T07:04:58;8.90;;;5.13;;
22015;SDS011;11172;51.698;-0.292;2022-09-12T07:07:25;7.78;;;5.05;;
22015;SDS011;11172;51.698;-0.292;2022-09-12T07:09:51;12.73;;;5.95;;
22015;SDS011;11172;51.698;-0.292;2022-09-12T07:12:17;5.35;;;4.40;;
22015;SDS011;11172;51.698;-0.292;2022-09-12T07:14:43;8.05;;;5.70;;
22015;SDS011;11172;51.698;-0.292;2022-09-12T07:17:09;5.47;;;4.47;;
22015;SDS011;11172;51.698;-0.292;2022-09-12T07:19:36;12.05;;;5.93;;
22015;SDS011;11172;51.698;-0.292;2022-09-12T07:22:02;5.10;;;4.40;;
22015;SDS011;11172;51.698;-0.292;2022-09-12T07:24:28;8.05;;;3.97;;
22015;SDS011;11172;51.698;-0.292;2022-09-12T07:26:54;7.38;;;4.13;;
22015;SDS011;11172;51.698;-0.292;2022-09-12T07:29:20;14.27;;;4.00;;
22015;SDS011;11172;51.698;-0.292;2022-09-12T07:31:46;11.68;;;4.18;;
22015;SDS011;11172;51.698;-0.292;2022-09-12T07:34:12;6.88;;;4.82;;
22015;SDS011;11172;51.698;-0.292;2022-09-12T07:36:38;6.43;;;4.32;;
22015;SDS011;11172;51.698;-0.292;2022-09-12T07:39:04;8.18;;;3.75;;
22015;SDS011;11172;51.698;-0.292;2022-09-12T07:41:30;7.35;;;3.50;;
22015;SDS011;11172;51.698;-0.292;2022-09-12T07:44:00;4.32;;;2.95;;
22015;SDS011;11172;51.698;-0.292;2022-09-12T07:46:27;9.02;;;3.53;;
22015;SDS011;11172;51.698;-0.292;2022-09-12T07:48:54;4.10;;;3.58;;
22015;SDS011;11172;51.698;-0.292;2022-09-12T07:51:20;4.20;;;3.47;;
22015;SDS011;11172;51.698;-0.292;2022-09-12T07:53:47;11.10;;;2.70;;
22015;SDS011;11172;51.698;-0.292;2022-09-12T07:56:13;8.48;;;3.47;;
22015;SDS011;11172;51.698;-0.292;2022-09-12T07:58:40;7.88;;;3.05;;
22015;SDS011;11172;51.698;-0.292;2022-09-12T08:01:16;9.18;;;4.03;;
22015;SDS011;11172;51.698;-0.292;2022-09-12T08:03:43;4.13;;;3.60;;
22015;SDS011;11172;51.698;-0.292;2022-09-12T08:08:35;8.02;;;3.33;;
22015;SDS011;11172;51.698;-0.292;2022-09-12T08:11:03;10.60;;;3.85;;
22015;SDS011;11172;51.698;-0.292;2022-09-12T08:13:30;4.82;;;3.50;;
22015;SDS011;11172;51.698;-0.292;2022-09-12T08:16:00;4.50;;;3.25;;
22015;SDS011;11172;51.698;-0.292;2022-09-12T08:18:28;5.13;;;3.25;;
22015;SDS011;11172;51.698;-0.292;2022-09-12T08:20:55;6.05;;;3.38;;
22015;SDS011;11172;51.698;-0.292;2022-09-12T08:23:22;8.30;;;3.35;;
22015;SDS011;11172;51.698;-0.292;2022-09-12T08:25:49;5.60;;;2.85;;
22015;SDS011;11172;51.698;-0.292;2022-09-12T08:28:15;7.40;;;2.67;;
22015;SDS011;11172;51.698;-0.292;2022-09-12T08:30:41;7.95;;;2.97;;
22015;SDS011;11172;51.698;-0.292;2022-09-12T08:33:07;7.20;;;2.95;;
22015;SDS011;11172;51.698;-0.292;2022-09-12T08:35:33;7.65;;;2.92;;
22015;SDS011;11172;51.698;-0.292;2022-09-12T08:37:59;9.65;;;2.63;;
22015;SDS011;11172;51.698;-0.292;2022-09-12T08:40:24;5.78;;;2.50;;
22015;SDS011;11172;51.698;-0.292;2022-09-12T08:42:53;4.88;;;2.75;;
22015;SDS011;11172;51.698;-0.292;2022-09-12T08:45:29;5.90;;;2.42;;
22015;SDS011;11172;51.698;-0.292;2022-09-12T08:47:59;2.33;;;1.98;;
22015;SDS011;11172;51.698;-0.292;2022-09-12T08:50:27;4.55;;;2.35;;
22015;SDS011;11172;51.698;-0.292;2022-09-12T08:53:26;5.18;;;2.40;;
22015;SDS011;11172;51.698;-0.292;2022-09-12T08:55:52;5.13;;;1.90;;
22015;SDS011;11172;51.698;-0.292;2022-09-12T08:58:23;3.60;;;1.95;;
22015;SDS011;11172;51.698;-0.292;2022-09-12T09:00:59;8.02;;;2.55;;
22015;SDS011;11172;51.698;-0.292;2022-09-12T09:17:03;4.95;;;2.33;;
22015;SDS011;11172;51.698;-0.292;2022-09-12T09:19:35;9.95;;;2.50;;
22015;SDS011;11172;51.698;-0.292;2022-09-12T09:22:11;3.45;;;2.03;;
22015;SDS011;11172;51.698;-0.292;2022-09-12T09:24:40;10.38;;;2.63;;
22015;SDS011;11172;51.698;-0.292;2022-09-12T09:27:09;3.72;;;1.92;;
22015;SDS011;11172;51.698;-0.292;2022-09-12T09:29:39;3.92;;;2.38;;
22015;SDS011;11172;51.698;-0.292;2022-09-12T09:32:15;3.97;;;1.83;;
22015;SDS011;11172;51.698;-0.292;2022-09-12T09:34:42;7.82;;;2.25;;
22015;SDS011;11172;51.698;-0.292;2022-09-12T09:37:17;4.35;;;2.22;;
22015;SDS011;11172;51.698;-0.292;2022-09-12T09:44:58;5.15;;;2.38;;
22015;SDS011;11172;51.698;-0.292;2022-09-12T09:47:24;6.63;;;2.00;;
22015;SDS011;11172;51.698;-0.292;2022-09-12T09:49:50;2.60;;;2.25;;
22015;SDS011;11172;51.698;-0.292;2022-09-12T09:52:19;4.18;;;1.63;;
22015;SDS011;11172;51.698;-0.292;2022-09-12T09:54:50;8.63;;;2.80;;
22015;SDS011;11172;51.698;-0.292;2022-09-12T10:05:32;3.97;;;2.42;;
22015;SDS011;11172;51.698;-0.292;2022-09-12T10:07:58;4.03;;;2.70;;
22015;SDS011;11172;51.698;-0.292;2022-09-12T10:10:24;5.93;;;2.42;;
22015;SDS011;11172;51.698;-0.292;2022-09-12T10:12:51;4.53;;;2.17;;
22015;SDS011;11172;51.698;-0.292;2022-09-12T10:15:30;10.35;;;2.33;;
22015;SDS011;11172;51.698;-0.292;2022-09-12T10:17:58;5.30;;;1.95;;
22015;SDS011;11172;51.698;-0.292;2022-09-12T10:22:59;9.85;;;3.05;;
22015;SDS011;11172;51.698;-0.292;2022-09-12T10:25:26;4.35;;;2.03;;
22015;SDS011;11172;51.698;-0.292;2022-09-12T10:27:56;3.88;;;2.03;;
22015;SDS011;11172;51.698;-0.292;2022-09-12T10:30:24;6.00;;;1.92;;
22015;SDS011;11172;51.698;-0.292;2022-09-12T10:33:02;4.72;;;1.95;;
22015;SDS011;11172;51.698;-0.292;2022-09-12T10:35:47;4.30;;;1.83;;
22015;SDS011;11172;51.698;-0.292;2022-09-12T10:38:20;4.30;;;1.90;;
22015;SDS011;11172;51.698;-0.292;2022-09-12T10:45:55;2.53;;;1.90;;
22015;SDS011;11172;51.698;-0.292;2022-09-12T10:48:29;6.35;;;1.73;;
22015;SDS011;11172;51.698;-0.292;2022-09-12T10:50:56;3.40;;;1.58;;
22015;SDS011;11172;51.698;-0.292;2022-09-12T10:53:31;7.07;;;1.73;;
22015;SDS011;11172;51.698;-0.292;2022-09-12T10:56:38;6.85;;;1.60;;
22015;SDS011;11172;51.698;-0.292;2022-09-12T10:59:14;13.77;;;1.67;;
22015;SDS011;11172;51.698;-0.292;2022-09-12T11:01:44;3.60;;;1.65;;
22015;SDS011;11172;51.698;-0.292;2022-09-12T11:09:53;2.28;;;1.45;;
22015;SDS011;11172;51.698;-0.292;2022-09-12T11:14:44;1.33;;;1.20;;
22015;SDS011;11172;51.698;-0.292;2022-09-12T11:17:41;1.63;;;1.50;;
22015;SDS011;11172;51.698;-0.292;2022-09-12T11:30:13;2.35;;;1.55;;
22015;SDS011;11172;51.698;-0.292;2022-09-12T11:43:55;1.75;;;1.40;;
22015;SDS011;11172;51.698;-0.292;2022-09-12T11:49:00;5.22;;;1.58;;
22015;SDS011;11172;51.698;-0.292;2022-09-12T11:51:40;6.30;;;1.80;;
22015;SDS011;11172;51.698;-0.292;2022-09-12T11:54:12;5.22;;;1.73;;
22015;SDS011;11172;51.698;-0.292;2022-09-12T11:56:43;2.35;;;1.35;;
22015;SDS011;11172;51.698;-0.292;2022-09-12T11:59:12;1.67;;;1.55;;
22015;SDS011;11172;51.698;-0.292;2022-09-12T12:01:40;1.48;;;1.33;;
22015;SDS011;11172;51.698;-0.292;2022-09-12T12:04:10;6.90;;;1.38;;
22015;SDS011;11172;51.698;-0.292;2022-09-12T12:09:44;2.20;;;1.70;;
22015;SDS011;11172;51.698;-0.292;2022-09-12T12:12:13;2.25;;;1.38;;
22015;SDS011;11172;51.698;-0.292;2022-09-12T12:14:41;6.18;;;1.50;;
22015;SDS011;11172;51.698;-0.292;2022-09-12T12:17:15;2.13;;;1.25;;
22015;SDS011;11172;51.698;-0.292;2022-09-12T12:19:42;5.80;;;1.75;;
22015;SDS011;11172;51.698;-0.292;2022-09-12T12:22:15;2.95;;;1.40;;
22015;SDS011;11172;51.698;-0.292;2022-09-12T12:35:36;4.57;;;1.70;;
22015;SDS011;11172;51.698;-0.292;2022-09-12T12:38:03;2.38;;;1.50;;
22015;SDS011;11172;51.698;-0.292;2022-09-12T12:40:30;2.03;;;1.75;;
22015;SDS011;11172;51.698;-0.292;2022-09-12T12:42:57;4.07;;;1.40;;
22015;SDS011;11172;51.698;-0.292;2022-09-12T12:47:51;4.18;;;1.60;;
22015;SDS011;11172;51.698;-0.292;2022-09-12T12:55:14;2.30;;;2.10;;
22015;SDS011;11172;51.698;-0.292;2022-09-12T12:57:54;5.97;;;2.42;;
22015;SDS011;11172;51.698;-0.292;2022-09-12T13:00:25;3.00;;;1.58;;
22015;SDS011;11172;51.698;-0.292;2022-09-12T13:03:08;3.50;;;1.73;;
22015;SDS011;11172;51.698;-0.292;2022-09-12T13:10:53;4.03;;;1.48;;
22015;SDS011;11172;51.698;-0.292;2022-09-12T13:15:53;4.55;;;1.85;;
22015;SDS011;11172;51.698;-0.292;2022-09-12T13:18:22;3.75;;;1.40;;
22015;SDS011;11172;51.698;-0.292;2022-09-12T13:20:59;1.58;;;1.17;;
22015;SDS011;11172;51.698;-0.292;2022-09-12T13:23:29;2.53;;;1.48;;
22015;SDS011;11172;51.698;-0.292;2022-09-12T13:26:00;1.83;;;1.30;;
22015;SDS011;11172;51.698;-0.292;2022-09-12T13:28:27;1.90;;;1.25;;
22015;SDS011;11172;51.698;-0.292;2022-09-12T13:43:22;2.63;;;1.58;;
22015;SDS011;11172;51.698;-0.292;2022-09-12T13:45:51;1.83;;;1.40;;
22015;SDS011;11172;51.698;-0.292;2022-09-12T13:48:21;5.20;;;1.50;;
22015;SDS011;11172;51.698;-0.292;2022-09-12T13:50:50;2.72;;;1.45;;
22015;SDS011;11172;51.698;-0.292;2022-09-12T13:53:17;1.92;;;1.52;;
22015;SDS011;11172;51.698;-0.292;2022-09-12T14:00:42;1.58;;;1.27;;
22015;SDS011;11172;51.698;-0.292;2022-09-12T14:03:23;2.00;;;1.00;;
22015;SDS011;11172;51.698;-0.292;2022-09-12T14:06:08;1.60;;;1.13;;
22015;SDS011;11172;51.698;-0.292;2022-09-12T14:08:37;2.83;;;1.40;;
22015;SDS011;11172;51.698;-0.292;2022-09-12T14:11:14;2.67;;;1.20;;
22015;SDS011;11172;51.698;-0.292;2022-09-12T14:13:42;1.05;;;0.88;;
22015;SDS011;11172;51.698;-0.292;2022-09-12T14:16:10;2.95;;;1.45;;
22015;SDS011;11172;51.698;-0.292;2022-09-12T14:18:36;2.70;;;1.20;;
22015;SDS011;11172;51.698;-0.292;2022-09-12T14:21:19;3.53;;;1.20;;
22015;SDS011;11172;51.698;-0.292;2022-09-12T14:23:46;2.75;;;1.45;;
22015;SDS011;11172;51.698;-0.292;2022-09-12T14:26:13;4.18;;;1.77;;
22015;SDS011;11172;51.698;-0.292;2022-09-12T14:28:42;2.78;;;1.45;;
22015;SDS011;11172;51.698;-0.292;2022-09-12T14:34:06;2.97;;;1.30;;
22015;SDS011;11172;51.698;-0.292;2022-09-12T14:36:51;2.50;;;1.33;;
22015;SDS011;11172;51.698;-0.292;2022-09-12T14:39:32;3.00;;;1.45;;
22015;SDS011;11172;51.698;-0.292;2022-09-12T14:44:37;4.57;;;1.17;;
22015;SDS011;11172;51.698;-0.292;2022-09-12T14:47:14;3.95;;;1.85;;
22015;SDS011;11172;51.698;-0.292;2022-09-12T14:49:43;6.30;;;1.30;;
22015;SDS011;11172;51.698;-0.292;2022-09-12T14:52:23;1.83;;;1.40;;
22015;SDS011;11172;51.698;-0.292;2022-09-12T14:55:00;2.75;;;1.27;;
22015;SDS011;11172;51.698;-0.292;2022-09-12T14:59:52;4.45;;;1.88;;
22015;SDS011;11172;51.698;-0.292;2022-09-12T15:05:13;2.95;;;1.58;;
22015;SDS011;11172;51.698;-0.292;2022-09-12T15:10:19;4.55;;;1.48;;
22015;SDS011;11172;51.698;-0.292;2022-09-12T15:13:12;2.70;;;1.67;;
22015;SDS011;11172;51.698;-0.292;2022-09-12T15:15:38;2.70;;;1.55;;
22015;SDS011;11172;51.698;-0.292;2022-09-12T15:18:04;3.50;;;1.77;;
22015;SDS011;11172;51.698;-0.292;2022-09-12T15:20:31;1.50;;;1.40;;
22015;SDS011;11172;51.698;-0.292;2022-09-12T15:22:57;4.38;;;1.85;;
22015;SDS011;11172;51.698;-0.292;2022-09-12T15:25:23;3.70;;;1.52;;
22015;SDS011;11172;51.698;-0.292;2022-09-12T15:27:51;2.03;;;1.63;;
22015;SDS011;11172;51.698;-0.292;2022-09-12T15:30:17;4.13;;;1.60;;
22015;SDS011;11172;51.698;-0.292;2022-09-12T15:32:43;2.05;;;1.63;;
22015;SDS011;11172;51.698;-0.292;2022-09-12T15:35:12;2.33;;;1.33;;
22015;SDS011;11172;51.698;-0.292;2022-09-12T15:37:39;2.80;;;1.55;;
22015;SDS011;11172;51.698;-0.292;2022-09-12T15:40:06;1.60;;;1.40;;
22015;SDS011;11172;51.698;-0.292;2022-09-12T15:42:32;2.40;;;1.73;;
22015;SDS011;11172;51.698;-0.292;2022-09-12T15:44:58;2.28;;;1.40;;
22015;SDS011;11172;51.698;-0.292;2022-09-12T15:47:24;1.92;;;1.50;;
22015;SDS011;11172;51.698;-0.292;2022-09-12T15:49:50;3.00;;;1.83;;
22015;SDS011;11172;51.698;-0.292;2022-09-12T15:52:16;2.63;;;1.48;;
22015;SDS011;11172;51.698;-0.292;2022-09-12T15:54:42;2.65;;;1.25;;
22015;SDS011;11172;51.698;-0.292;2022-09-12T15:57:08;2.63;;;1.73;;
22015;SDS011;11172;51.698;-0.292;2022-09-12T15:59:34;4.30;;;1.83;;
22015;SDS011;11172;51.698;-0.292;2022-09-12T16:02:01;6.07;;;1.40;;
22015;SDS011;11172;51.698;-0.292;2022-09-12T16:04:27;4.63;;;1.58;;
22015;SDS011;11172;51.698;-0.292;2022-09-12T16:06:54;1.17;;;1.00;;
22015;SDS011;11172;51.698;-0.292;2022-09-12T16:09:22;3.05;;;1.52;;
22015;SDS011;11172;51.698;-0.292;2022-09-12T16:11:48;2.85;;;1.48;;
22015;SDS011;11172;51.698;-0.292;2022-09-12T16:14:15;1.77;;;1.45;;
22015;SDS011;11172;51.698;-0.292;2022-09-12T16:16:41;1.98;;;1.33;;
22015;SDS011;11172;51.698;-0.292;2022-09-12T16:19:07;3.03;;;1.42;;
22015;SDS011;11172;51.698;-0.292;2022-09-12T16:21:36;4.63;;;1.67;;
22015;SDS011;11172;51.698;-0.292;2022-09-12T16:24:03;1.98;;;1.20;;
22015;SDS011;11172;51.698;-0.292;2022-09-12T16:26:29;5.13;;;1.67;;
22015;SDS011;11172;51.698;-0.292;2022-09-12T16:28:56;2.13;;;1.33;;
22015;SDS011;11172;51.698;-0.292;2022-09-12T16:31:22;3.10;;;1.95;;
22015;SDS011;11172;51.698;-0.292;2022-09-12T16:33:48;2.15;;;1.40;;
22015;SDS011;11172;51.698;-0.292;2022-09-12T16:38:48;2.53;;;1.05;;
22015;SDS011;11172;51.698;-0.292;2022-09-12T16:41:14;3.63;;;1.77;;
22015;SDS011;11172;51.698;-0.292;2022-09-12T16:43:41;4.97;;;2.00;;
22015;SDS011;11172;51.698;-0.292;2022-09-12T16:46:17;5.85;;;1.83;;
22015;SDS011;11172;51.698;-0.292;2022-09-12T16:48:54;2.97;;;1.38;;
22015;SDS011;11172;51.698;-0.292;2022-09-12T16:51:23;2.40;;;1.58;;
22015;SDS011;11172;51.698;-0.292;2022-09-12T16:53:51;3.80;;;1.60;;
22015;SDS011;11172;51.698;-0.292;2022-09-12T16:56:17;4.93;;;1.35;;
22015;SDS011;11172;51.698;-0.292;2022-09-12T16:58:43;2.58;;;1.48;;
22015;SDS011;11172;51.698;-0.292;2022-09-12T17:01:10;4.22;;;1.55;;
22015;SDS011;11172;51.698;-0.292;2022-09-12T17:03:37;7.82;;;1.65;;
22015;SDS011;11172;51.698;-0.292;2022-09-12T17:08:36;2.03;;;1.35;;
22015;SDS011;11172;51.698;-0.292;2022-09-12T17:11:03;5.82;;;1.58;;
22015;SDS011;11172;51.698;-0.292;2022-09-12T17:13:29;5.07;;;1.63;;
22015;SDS011;11172;51.698;-0.292;2022-09-12T17:15:55;2.60;;;1.38;;
22015;SDS011;11172;51.698;-0.292;2022-09-12T17:18:22;2.92;;;1.70;;
22015;SDS011;11172;51.698;-0.292;2022-09-12T17:20:48;4.65;;;1.52;;
22015;SDS011;11172;51.698;-0.292;2022-09-12T17:23:14;1.92;;;1.52;;
22015;SDS011;11172;51.698;-0.292;2022-09-12T17:25:45;2.05;;;1.50;;
22015;SDS011;11172;51.698;-0.292;2022-09-12T17:28:11;7.82;;;1.65;;
22015;SDS011;11172;51.698;-0.292;2022-09-12T17:30:37;4.72;;;1.70;;
22015;SDS011;11172;51.698;-0.292;2022-09-12T17:33:03;3.00;;;2.10;;